Terminal Aerodrome Forecast
Issued by NWS

Home | Current Version | Previous Version | Text Only | Print | Product List | Glossary On
Versions: 1 2 3 4 5 6 7 8 9 10 11 12 13 14 15 16 17 18 19 20 21 22 23 24 25 26 27 28 29 30 31 32 33 34 35 36 37
000
FTUS45 KBOU 212329
TAFAPA
TAF
KAPA 212329Z 2200/2224 08006KT P6SM FEW150 SCT240
     FM220200 14006KT P6SM FEW150 SCT240
     FM220500 18007KT P6SM SCT240
     FM222200 23008KT P6SM SCT120 BKN220=

USA.gov is the U.S. government's official web portal to all federal, state and local government web resources and services.